Time;durP1;ratioP1;P1;durP2;ratioP2;P2;SDS_P1;SDS_P2;PMS_P1;PMS_P2;Temp;Humidity;BMP_temperature;BMP_pressure;BME280_temperature;BME280_humidity;BME280_pressure;Samples;Min_cycle;Max_cycle;Signal;HPM_P1;HPM_P2
2024/03/01 00:01:14;;;;;;;31.02;15.25;;;;;;;;;;4923833;29;20035;-81
2024/03/01 00:04:04;;;;;;;;;;;;;;;;;;;;;
2024/03/01 00:06:49;;;;;;;34.00;15.52;;;;;;;;;;4936740;29;20043;-82
2024/03/01 00:09:19;;;;;;;40.35;16.88;;;;;;;;;;4918513;29;20038;-82
2024/03/01 00:11:49;;;;;;;34.13;15.02;;;;;;;;;;4921222;29;20035;-80
2024/03/01 00:14:26;;;;;;;33.03;15.63;;;;;;;;;;4933614;29;20118;-82
2024/03/01 00:16:57;;;;;;;34.03;14.32;;;;;;;;;;4931318;29;20114;-80
2024/03/01 00:19:30;;;;;;;33.85;15.60;;;;;;;;;;4936310;29;20035;-81
2024/03/01 00:25:03;;;;;;;31.10;14.90;;;;;;;;;;4948839;29;20039;-82
2024/03/01 00:27:49;;;;;;;36.38;15.45;;;;;;;;;;4944725;29;20071;-81
2024/03/01 00:31:06;;;;;;;27.13;14.02;;;;;;;;;;4949269;29;20035;-82
2024/03/01 00:34:23;;;;;;;32.83;14.90;;;;;;;;;;4945167;28;20474;-80
2024/03/01 00:36:57;;;;;;;34.78;15.05;;;;;;;;;;4951266;29;20035;-82
2024/03/01 00:39:28;;;;;;;34.80;15.80;;;;;;;;;;4916143;29;20451;-81
2024/03/01 00:42:19;;;;;;;42.17;15.20;;;;;;;;;;4952071;29;20043;-80
2024/03/01 00:44:47;;;;;;;32.35;14.38;;;;;;;;;;4934471;29;20047;-82
2024/03/01 00:47:18;;;;;;;33.05;15.23;;;;;;;;;;4918801;29;20053;-81
2024/03/01 00:49:45;;;;;;;32.70;14.38;;;;;;;;;;4919054;29;20031;-82
2024/03/01 00:52:18;;;;;;;34.05;15.30;;;;;;;;;;4934533;29;20035;-81
2024/03/01 00:54:45;;;;;;;30.08;14.48;;;;;;;;;;4917644;29;20031;-81
2024/03/01 00:57:14;;;;;;;32.97;15.23;;;;;;;;;;4929194;29;20028;-82
2024/03/01 00:59:50;;;;;;;32.22;14.23;;;;;;;;;;4919072;29;20047;-80
2024/03/01 01:02:20;;;;;;;29.15;13.98;;;;;;;;;;4916753;29;20050;-80
2024/03/01 01:04:49;;;;;;;36.75;15.90;;;;;;;;;;4930363;29;20054;-80
2024/03/01 01:07:34;;;;;;;33.33;14.57;;;;;;;;;;4935778;29;20490;-80
2024/03/01 01:10:31;;;;;;;29.05;13.60;;;;;;;;;;4952466;29;20031;-81
2024/03/01 01:13:14;;;;;;;31.38;13.77;;;;;;;;;;4943063;29;20483;-80
2024/03/01 01:15:51;;;;;;;31.02;14.27;;;;;;;;;;4952211;29;20651;-81
2024/03/01 01:18:28;;;;;;;34.33;15.50;;;;;;;;;;4935093;29;20062;-82
2024/03/01 01:21:24;;;;;;;31.10;13.68;;;;;;;;;;4951507;29;20043;-80
2024/03/01 01:23:55;;;;;;;;;;;;;;;;;;4918497;28;20043;-79
2024/03/01 01:26:28;;;;;;;29.70;13.55;;;;;;;;;;4945608;29;19914;-80
2024/03/01 01:28:58;;;;;;;31.90;14.95;;;;;;;;;;4946183;29;20138;-80
2024/03/01 01:31:28;;;;;;;31.67;14.43;;;;;;;;;;4914541;29;20031;-81
2024/03/01 01:34:10;;;;;;;37.30;14.98;;;;;;;;;;4946105;29;20023;-81
2024/03/01 01:36:44;;;;;;;30.83;13.88;;;;;;;;;;4934225;29;20039;-81
2024/03/01 01:39:26;;;;;;;35.33;15.20;;;;;;;;;;4950536;29;20039;-81
2024/03/01 01:42:03;;;;;;;30.33;13.48;;;;;;;;;;4917216;29;20035;-80
2024/03/01 01:44:43;;;;;;;28.15;13.40;;;;;;;;;;4914967;29;20085;-79
2024/03/01 01:47:38;;;;;;;31.27;14.45;;;;;;;;;;4932667;29;20039;-82
2024/03/01 01:50:12;;;;;;;29.15;13.70;;;;;;;;;;4947123;29;20059;-80
2024/03/01 01:52:50;;;;;;;29.77;13.35;;;;;;;;;;4937841;29;20038;-80
2024/03/01 01:55:28;;;;;;;31.35;14.50;;;;;;;;;;4930127;29;20039;-81
2024/03/01 01:58:11;;;;;;;33.45;14.48;;;;;;;;;;4943313;29;20039;-79
2024/03/01 02:00:47;;;;;;;30.25;14.38;;;;;;;;;;4962655;29;20106;-80
2024/03/01 02:03:47;;;;;;;34.08;14.43;;;;;;;;;;4963388;28;20078;-80
2024/03/01 02:06:29;;;;;;;36.70;14.25;;;;;;;;;;4945860;29;20035;-81
2024/03/01 02:09:55;;;;;;;38.65;15.93;;;;;;;;;;4933872;29;20028;-81
2024/03/01 02:12:26;;;;;;;35.15;13.93;;;;;;;;;;4927864;29;20028;-81
2024/03/01 02:15:10;;;;;;;34.22;14.52;;;;;;;;;;4921037;29;20494;-81
2024/03/01 02:17:44;;;;;;;28.85;14.48;;;;;;;;;;4932278;29;20024;-81
2024/03/01 02:20:33;;;;;;;32.92;14.52;;;;;;;;;;4930490;29;20035;-81
2024/03/01 02:23:15;;;;;;;34.20;14.40;;;;;;;;;;4902315;29;20534;-81
2024/03/01 02:25:52;;;;;;;30.65;14.32;;;;;;;;;;4923906;29;20499;-81
2024/03/01 02:28:29;;;;;;;30.13;13.35;;;;;;;;;;4920999;29;20095;-81
2024/03/01 02:31:27;;;;;;;33.33;13.55;;;;;;;;;;4914319;29;20276;-80
2024/03/01 02:34:37;;;;;;;32.83;14.23;;;;;;;;;;4943491;29;20039;-81
2024/03/01 02:37:17;;;;;;;30.25;12.63;;;;;;;;;;4928551;29;20042;-82
2024/03/01 02:40:14;;;;;;;26.20;13.23;;;;;;;;;;4911237;29;20129;-81
2024/03/01 02:43:00;;;;;;;28.17;12.65;;;;;;;;;;4941979;29;20466;-80
2024/03/01 02:45:31;;;;;;;30.67;13.93;;;;;;;;;;4927820;29;20042;-80
2024/03/01 02:48:06;;;;;;;34.05;13.52;;;;;;;;;;4928710;29;20043;-81
2024/03/01 02:50:43;;;;;;;28.48;13.18;;;;;;;;;;4930689;29;20118;-80
2024/03/01 02:53:15;;;;;;;30.15;14.60;;;;;;;;;;4909963;29;20043;-82
2024/03/01 02:55:46;;;;;;;33.58;14.57;;;;;;;;;;4915974;29;20047;-80
2024/03/01 02:58:47;;;;;;;29.73;14.40;;;;;;;;;;4939307;28;20070;-81
2024/03/01 03:01:30;;;;;;;34.42;13.68;;;;;;;;;;4948352;29;20039;-81
2024/03/01 03:04:05;;;;;;;33.28;14.57;;;;;;;;;;4917796;29;20474;-82
2024/03/01 03:06:41;;;;;;;37.47;13.55;;;;;;;;;;4916440;29;20043;-81
2024/03/01 03:09:15;;;;;;;33.85;14.95;;;;;;;;;;4916881;29;20130;-80
2024/03/01 03:12:11;;;;;;;29.95;13.63;;;;;;;;;;4932645;29;20058;-81
2024/03/01 03:14:44;;;;;;;31.55;14.05;;;;;;;;;;4916286;29;20046;-80
2024/03/01 03:17:18;;;;;;;33.88;15.40;;;;;;;;;;4917521;29;20099;-79
2024/03/01 03:19:47;;;;;;;30.90;13.57;;;;;;;;;;4925544;29;20027;-81
2024/03/01 03:22:18;;;;;;;29.42;13.38;;;;;;;;;;4935300;29;20039;-81
2024/03/01 03:24:58;;;;;;;30.55;14.13;;;;;;;;;;4938214;29;20050;-81
2024/03/01 03:27:31;;;;;;;35.35;15.30;;;;;;;;;;4936236;29;20439;-81
2024/03/01 03:30:01;;;;;;;33.83;14.95;;;;;;;;;;4920012;29;20054;-80
2024/03/01 03:32:40;;;;;;;30.20;14.32;;;;;;;;;;4926075;29;20035;-80
2024/03/01 03:35:18;;;;;;;28.27;13.02;;;;;;;;;;4931586;29;20036;-80
2024/03/01 03:37:46;;;;;;;27.90;12.55;;;;;;;;;;4940119;29;20036;-81
2024/03/01 03:40:19;;;;;;;28.92;13.80;;;;;;;;;;4926670;29;20028;-80
2024/03/01 03:42:55;;;;;;;;;;;;;;;;;;4927080;29;20050;-81
2024/03/01 03:45:28;;;;;;;30.55;14.38;;;;;;;;;;4941969;29;20089;-81
2024/03/01 03:48:03;;;;;;;32.13;13.50;;;;;;;;;;4936575;29;20031;-81
2024/03/01 03:50:36;;;;;;;33.90;14.77;;;;;;;;;;4934900;29;20039;-81
2024/03/01 03:53:03;;;;;;;34.05;14.63;;;;;;;;;;4950658;29;20111;-80
2024/03/01 03:55:39;;;;;;;30.45;14.52;;;;;;;;;;4921482;29;20046;-80
2024/03/01 03:58:07;;;;;;;34.42;14.13;;;;;;;;;;4905571;29;20103;-79
2024/03/01 04:00:37;;;;;;;32.47;13.15;;;;;;;;;;4920664;29;20032;-82
2024/03/01 04:03:04;;;;;;;33.20;14.48;;;;;;;;;;4903441;29;20044;-81
2024/03/01 04:05:36;;;;;;;32.38;14.85;;;;;;;;;;4930863;29;20035;-80
2024/03/01 04:08:14;;;;;;;31.55;13.77;;;;;;;;;;4917547;29;20099;-81
2024/03/01 04:10:50;;;;;;;36.40;15.10;;;;;;;;;;4940956;29;20043;-81
2024/03/01 04:13:27;;;;;;;;;;;;;;;;;;4934867;28;20031;-80
2024/03/01 04:15:55;;;;;;;34.22;14.07;;;;;;;;;;4928413;29;19917;-81
2024/03/01 04:18:46;;;;;;;35.83;14.95;;;;;;;;;;4913611;29;20031;-80
2024/03/01 04:21:21;;;;;;;32.72;14.90;;;;;;;;;;4921314;29;20047;-81
2024/03/01 04:23:58;;;;;;;35.70;14.38;;;;;;;;;;4949615;28;20035;-80
2024/03/01 04:26:39;;;;;;;34.55;14.63;;;;;;;;;;4921071;29;20039;-79
2024/03/01 04:29:07;;;;;;;37.50;15.07;;;;;;;;;;4932921;29;20035;-81
2024/03/01 04:31:38;;;;;;;35.08;15.55;;;;;;;;;;4919779;29;20035;-82
2024/03/01 04:34:19;;;;;;;36.85;15.13;;;;;;;;;;4919292;29;20059;-81
2024/03/01 04:36:49;;;;;;;35.35;15.15;;;;;;;;;;4948487;29;20039;-80
2024/03/01 04:39:16;;;;;;;30.73;14.18;;;;;;;;;;4886360;29;20127;-80
2024/03/01 04:42:09;;;;;;;32.90;13.80;;;;;;;;;;4921150;29;20044;-81
2024/03/01 04:44:44;;;;;;;32.53;15.23;;;;;;;;;;4901651;29;20047;-79
2024/03/01 04:47:15;;;;;;;33.65;14.95;;;;;;;;;;4913862;29;20055;-80
2024/03/01 04:50:06;;;;;;;35.55;14.15;;;;;;;;;;4916171;29;20062;-81
2024/03/01 04:52:37;;;;;;;34.75;15.40;;;;;;;;;;4913783;29;20035;-82
2024/03/01 04:55:17;;;;;;;29.50;14.07;;;;;;;;;;4919901;29;20043;-80
2024/03/01 04:57:47;;;;;;;38.38;15.80;;;;;;;;;;4915803;29;20031;-81
2024/03/01 05:00:15;;;;;;;39.47;14.80;;;;;;;;;;4930395;29;20042;-81
2024/03/01 05:02:48;;;;;;;32.95;15.27;;;;;;;;;;4914984;29;20031;-80
2024/03/01 05:05:28;;;;;;;36.08;14.45;;;;;;;;;;4930953;29;20107;-81
2024/03/01 05:08:07;;;;;;;37.72;15.05;;;;;;;;;;4914016;29;20036;-80
2024/03/01 05:10:36;;;;;;;40.42;16.77;;;;;;;;;;4914298;29;20047;-81
2024/03/01 05:13:39;;;;;;;36.45;15.35;;;;;;;;;;4916361;29;20031;-80
2024/03/01 05:16:25;;;;;;;35.35;14.60;;;;;;;;;;4916678;29;20036;-81
2024/03/01 05:19:08;;;;;;;36.63;15.52;;;;;;;;;;4925883;29;20368;-81
2024/03/01 05:21:41;;;;;;;37.67;16.00;;;;;;;;;;4900783;29;20051;-82
2024/03/01 05:24:17;;;;;;;34.95;16.02;;;;;;;;;;4930355;29;20434;-80
2024/03/01 05:26:55;;;;;;;38.10;16.05;;;;;;;;;;4906146;29;20043;-80
2024/03/01 05:29:39;;;;;;;38.03;17.27;;;;;;;;;;4944865;29;20031;-81
2024/03/01 05:32:27;;;;;;;37.67;15.52;;;;;;;;;;4940840;29;20034;-81
2024/03/01 05:38:02;;;;;;;36.83;15.25;;;;;;;;;;4919241;29;20399;-81
2024/03/01 05:40:40;;;;;;;34.55;14.77;;;;;;;;;;4906928;29;20031;-81
2024/03/01 05:43:09;;;;;;;33.58;15.07;;;;;;;;;;4913538;29;20447;-80
2024/03/01 05:45:56;;;;;;;37.80;16.42;;;;;;;;;;4916170;29;20063;-81
2024/03/01 05:48:26;;;;;;;35.20;15.35;;;;;;;;;;4929873;29;20455;-80
2024/03/01 05:51:22;;;;;;;37.65;14.93;;;;;;;;;;4932498;29;20186;-80
2024/03/01 05:54:04;;;;;;;35.38;15.27;;;;;;;;;;4913793;29;20066;-79
2024/03/01 05:56:51;;;;;;;35.28;14.82;;;;;;;;;;4934335;29;20032;-81
2024/03/01 05:59:28;;;;;;;28.95;13.85;;;;;;;;;;4919308;29;20036;-78
2024/03/01 06:02:10;;;;;;;33.78;14.10;;;;;;;;;;4929885;29;20027;-82
2024/03/01 06:05:05;;;;;;;38.60;15.30;;;;;;;;;;4928312;29;20039;-78
2024/03/01 06:07:46;;;;;;;37.20;15.38;;;;;;;;;;4925028;29;20039;-80
2024/03/01 06:10:16;;;;;;;31.02;13.43;;;;;;;;;;4913118;29;20054;-81
2024/03/01 06:12:56;;;;;;;32.75;14.20;;;;;;;;;;4932285;29;20039;-80
2024/03/01 06:15:26;;;;;;;38.30;14.70;;;;;;;;;;4934312;29;20056;-80
2024/03/01 06:17:54;;;;;;;34.75;14.93;;;;;;;;;;4935017;29;20035;-79
2024/03/01 06:20:27;;;;;;;32.88;14.20;;;;;;;;;;4934938;29;20038;-80
2024/03/01 06:23:05;;;;;;;26.90;14.05;;;;;;;;;;4933637;29;20046;-80
2024/03/01 06:25:34;;;;;;;34.10;13.70;;;;;;;;;;4917046;29;20038;-81
2024/03/01 06:28:32;;;;;;;28.38;13.95;;;;;;;;;;4944526;29;20040;-81
2024/03/01 06:31:30;;;;;;;33.70;13.93;;;;;;;;;;4931644;29;20059;-80
2024/03/01 06:34:19;;;;;;;39.72;13.52;;;;;;;;;;4947394;29;20035;-80
2024/03/01 06:37:14;;;;;;;32.90;13.25;;;;;;;;;;4949563;29;20035;-80
2024/03/01 06:40:16;;;;;;;31.08;13.60;;;;;;;;;;4947840;29;20043;-81
2024/03/01 06:42:52;;;;;;;31.33;14.38;;;;;;;;;;4957410;28;20043;-80
2024/03/01 06:46:08;;;;;;;41.13;13.02;;;;;;;;;;4950274;29;20066;-80
2024/03/01 06:48:55;;;;;;;26.90;13.13;;;;;;;;;;4938927;29;20044;-80
2024/03/01 06:51:30;;;;;;;33.47;14.15;;;;;;;;;;4926764;29;20078;-80
2024/03/01 06:54:22;;;;;;;26.75;12.38;;;;;;;;;;4899486;29;20043;-80
2024/03/01 06:57:09;;;;;;;30.00;12.38;;;;;;;;;;4922441;29;20064;-79
2024/03/01 06:59:59;;;;;;;33.30;14.90;;;;;;;;;;4952044;29;20054;-80
2024/03/01 07:02:51;;;;;;;29.83;12.57;;;;;;;;;;4945876;29;20043;-81
2024/03/01 07:05:27;;;;;;;30.95;13.07;;;;;;;;;;4924110;29;20043;-80
2024/03/01 07:08:08;;;;;;;30.20;13.18;;;;;;;;;;4894040;29;20046;-80
2024/03/01 07:10:58;;;;;;;37.30;13.82;;;;;;;;;;4909818;29;20515;-81
2024/03/01 07:13:49;;;;;;;31.27;13.85;;;;;;;;;;4912414;29;20046;-80
2024/03/01 07:16:32;;;;;;;34.55;13.48;;;;;;;;;;4942474;29;20048;-80
2024/03/01 07:19:08;;;;;;;32.10;13.90;;;;;;;;;;4925726;29;20063;-79
2024/03/01 07:21:43;;;;;;;32.60;14.13;;;;;;;;;;4936641;29;20059;-82
2024/03/01 07:24:29;;;;;;;32.90;13.57;;;;;;;;;;4935837;29;20574;-80
2024/03/01 07:27:06;;;;;;;36.97;14.55;;;;;;;;;;4932645;29;20062;-80
2024/03/01 07:29:55;;;;;;;30.92;13.60;;;;;;;;;;4937347;29;20044;-81
2024/03/01 07:32:46;;;;;;;35.03;13.98;;;;;;;;;;4938517;29;20447;-80
2024/03/01 07:35:39;;;;;;;39.35;15.15;;;;;;;;;;4939987;28;20047;-83
2024/03/01 07:38:15;;;;;;;38.15;17.10;;;;;;;;;;4932096;29;20120;-81
2024/03/01 07:40:59;;;;;;;40.38;16.42;;;;;;;;;;4932902;29;20052;-81
2024/03/01 07:43:31;;;;;;;35.42;15.55;;;;;;;;;;4907728;29;20078;-80
2024/03/01 07:46:06;;;;;;;33.70;14.73;;;;;;;;;;4933408;29;20032;-80
2024/03/01 07:48:48;;;;;;;45.15;16.02;;;;;;;;;;4946460;29;20047;-81
2024/03/01 07:51:28;;;;;;;38.42;15.20;;;;;;;;;;4940307;29;20039;-81
2024/03/01 07:54:03;;;;;;;35.33;15.52;;;;;;;;;;4906414;29;20035;-81
2024/03/01 07:56:54;;;;;;;40.58;16.35;;;;;;;;;;4909917;29;20048;-80
2024/03/01 07:59:43;;;;;;;40.83;16.40;;;;;;;;;;4901608;29;20586;-80
2024/03/01 08:02:39;;;;;;;;;;;;;;;;;;4928637;29;20502;-81
2024/03/01 08:05:26;;;;;;;35.75;15.15;;;;;;;;;;4927438;29;20298;-82
2024/03/01 08:07:59;;;;;;;37.75;15.18;;;;;;;;;;4932209;29;20038;-81
2024/03/01 08:10:46;;;;;;;39.40;17.27;;;;;;;;;;4945686;29;20043;-81
2024/03/01 08:13:21;;;;;;;41.05;17.25;;;;;;;;;;4914344;29;20387;-81
2024/03/01 08:15:53;;;;;;;49.67;18.57;;;;;;;;;;4911991;29;20043;-81
2024/03/01 08:18:30;;;;;;;44.95;17.25;;;;;;;;;;4928401;29;20062;-80
2024/03/01 08:21:03;;;;;;;40.58;16.85;;;;;;;;;;4946474;29;20046;-81
2024/03/01 08:23:53;;;;;;;38.35;16.80;;;;;;;;;;4935377;28;20051;-82
2024/03/01 08:38:39;;;;;;;42.05;15.90;;;;;;;;;;4854234;29;20034;-80
2024/03/01 08:41:08;;;;;;;37.22;16.08;;;;;;;;;;4821237;29;20085;-80
2024/03/01 08:43:41;;;;;;;37.67;16.27;;;;;;;;;;4820491;29;20042;-80
2024/03/01 08:46:20;;;;;;;43.15;17.15;;;;;;;;;;4814066;29;20063;-83
2024/03/01 08:48:53;;;;;;;38.95;16.75;;;;;;;;;;4820625;29;20046;-82
2024/03/01 08:51:29;;;;;;;41.65;15.93;;;;;;;;;;4825926;29;20179;-81
2024/03/01 08:54:16;;;;;;;38.85;18.00;;;;;;;;;;4835080;29;20042;-81
2024/03/01 08:57:04;;;;;;;33.50;14.85;;;;;;;;;;4834741;29;20058;-82
2024/03/01 08:59:48;;;;;;;38.05;16.20;;;;;;;;;;4834954;29;20097;-81
2024/03/01 09:02:27;;;;;;;40.85;16.88;;;;;;;;;;4845956;29;20441;-81
2024/03/01 09:04:59;;;;;;;40.00;16.17;;;;;;;;;;4823247;29;20054;-82
2024/03/01 09:07:44;;;;;;;38.03;16.17;;;;;;;;;;4889640;29;20049;-81
2024/03/01 09:10:35;;;;;;;37.58;15.93;;;;;;;;;;4933163;29;20042;-81
2024/03/01 09:13:44;;;;;;;42.88;16.10;;;;;;;;;;4948980;28;20091;-82
2024/03/01 09:16:32;;;;;;;39.88;16.33;;;;;;;;;;4974730;28;20034;-82
2024/03/01 09:19:02;;;;;;;42.75;16.77;;;;;;;;;;4928772;29;20063;-81
2024/03/01 09:21:42;;;;;;;35.35;16.35;;;;;;;;;;4943413;28;20105;-81
2024/03/01 09:24:18;;;;;;;43.22;17.08;;;;;;;;;;4934460;28;20043;-81
2024/03/01 09:27:01;;;;;;;38.13;16.92;;;;;;;;;;4929942;29;20058;-80
2024/03/01 09:29:37;;;;;;;38.97;16.38;;;;;;;;;;4923494;29;20031;-81
2024/03/01 09:32:11;;;;;;;42.50;16.40;;;;;;;;;;4949995;29;20106;-83
2024/03/01 09:34:55;;;;;;;36.70;15.85;;;;;;;;;;4937201;29;20070;-81
2024/03/01 09:37:27;;;;;;;38.08;15.98;;;;;;;;;;4934750;29;20027;-82
2024/03/01 09:39:59;;;;;;;36.42;16.45;;;;;;;;;;4927341;29;20032;-82
2024/03/01 09:42:58;;;;;;;39.55;16.08;;;;;;;;;;4914150;29;20099;-81
2024/03/01 09:45:45;;;;;;;39.17;15.35;;;;;;;;;;4934326;28;20050;-81
2024/03/01 09:48:22;;;;;;;44.78;16.30;;;;;;;;;;4924873;29;20059;-83
2024/03/01 09:51:06;;;;;;;33.92;14.93;;;;;;;;;;4958946;28;20038;-82
2024/03/01 09:53:55;;;;;;;39.92;17.15;;;;;;;;;;4925178;28;20093;-81
2024/03/01 09:56:53;;;;;;;44.63;18.27;;;;;;;;;;4930102;28;20086;-83
2024/03/01 10:00:07;;;;;;;33.75;15.75;;;;;;;;;;4930704;29;20023;-83
2024/03/01 10:02:50;;;;;;;34.80;15.57;;;;;;;;;;4835183;29;20034;-81
2024/03/01 10:05:38;;;;;;;37.65;16.08;;;;;;;;;;4963139;28;20043;-81
2024/03/01 10:08:15;;;;;;;32.67;15.50;;;;;;;;;;4940569;28;20045;-81
2024/03/01 10:11:10;;;;;;;35.92;16.73;;;;;;;;;;4940527;28;20038;-82
2024/03/01 10:14:18;;;;;;;38.13;15.75;;;;;;;;;;4917634;29;20027;-83
2024/03/01 10:16:48;;;;;;;38.63;16.95;;;;;;;;;;4899551;28;20043;-81
2024/03/01 10:19:47;;;;;;;40.50;16.60;;;;;;;;;;4947128;28;20035;-82
2024/03/01 10:22:32;;;;;;;37.83;16.05;;;;;;;;;;4917264;29;20035;-82
2024/03/01 10:25:21;;;;;;;37.30;15.40;;;;;;;;;;4918699;29;20035;-82
2024/03/01 10:28:26;;;;;;;40.35;16.77;;;;;;;;;;4949201;29;20045;-82
2024/03/01 10:31:19;;;;;;;41.97;17.70;;;;;;;;;;4836154;29;20132;-82
2024/03/01 10:34:08;;;;;;;41.58;16.52;;;;;;;;;;4860668;29;20029;-83
2024/03/01 10:36:46;;;;;;;51.15;16.70;;;;;;;;;;4852473;29;20125;-82
2024/03/01 10:39:23;;;;;;;32.50;15.57;;;;;;;;;;4848749;29;20062;-82
2024/03/01 10:42:24;;;;;;;36.78;16.80;;;;;;;;;;4860869;29;20049;-80
2024/03/01 10:45:23;;;;;;;44.15;16.40;;;;;;;;;;4809227;29;20042;-82
2024/03/01 10:48:02;;;;;;;33.75;16.20;;;;;;;;;;4795469;29;20038;-82
2024/03/01 10:50:46;;;;;;;36.40;15.65;;;;;;;;;;4785961;29;20059;-80
2024/03/01 10:53:20;;;;;;;33.53;15.85;;;;;;;;;;4789895;29;20031;-81
2024/03/01 10:56:28;;;;;;;40.72;16.90;;;;;;;;;;4815163;29;20046;-83
2024/03/01 10:59:27;;;;;;;34.30;16.23;;;;;;;;;;4797709;29;20074;-82
2024/03/01 11:02:18;;;;;;;32.10;15.75;;;;;;;;;;4800006;29;20061;-81
2024/03/01 11:05:12;;;;;;;39.92;15.88;;;;;;;;;;4808901;29;20504;-81
2024/03/01 11:07:58;;;;;;;41.45;16.77;;;;;;;;;;4844856;29;20473;-82
2024/03/01 11:13:37;;;;;;;34.10;15.70;;;;;;;;;;4902949;29;19967;-79
2024/03/01 11:16:12;;;;;;;35.78;16.15;;;;;;;;;;4865199;29;20509;-81
2024/03/01 11:19:09;;;;;;;37.10;16.40;;;;;;;;;;4883730;29;20492;-82
2024/03/01 11:21:47;;;;;;;32.58;15.07;;;;;;;;;;4873576;28;20038;-80
2024/03/01 11:24:24;;;;;;;34.15;15.07;;;;;;;;;;4919561;29;20384;-81
2024/03/01 11:26:54;;;;;;;32.95;16.13;;;;;;;;;;4919798;29;20514;-80
2024/03/01 11:29:41;;;;;;;37.17;16.63;;;;;;;;;;4937407;28;20044;-79
2024/03/01 11:32:20;;;;;;;32.40;16.02;;;;;;;;;;4941859;29;20028;-81
2024/03/01 11:35:02;;;;;;;36.70;16.50;;;;;;;;;;4920301;29;20413;-81
2024/03/01 11:37:57;;;;;;;40.92;16.38;;;;;;;;;;4953704;28;20039;-80
2024/03/01 11:44:09;;;;;;;35.13;15.20;;;;;;;;;;4866800;29;20382;-81
2024/03/01 11:47:11;;;;;;;33.90;16.27;;;;;;;;;;4854453;29;20040;-83
2024/03/01 11:49:40;;;;;;;38.65;17.50;;;;;;;;;;4847753;29;20032;-81
2024/03/01 11:52:27;;;;;;;33.78;15.15;;;;;;;;;;4861941;29;20025;-82
2024/03/01 11:55:17;;;;;;;52.85;24.63;;;;;;;;;;4884757;29;20061;-81
2024/03/01 11:58:17;;;;;;;38.90;17.98;;;;;;;;;;4882042;29;20036;-81
2024/03/01 12:00:55;;;;;;;38.10;16.35;;;;;;;;;;4845726;29;20541;-82
2024/03/01 12:03:40;;;;;;;36.97;17.45;;;;;;;;;;4876374;29;20917;-80
2024/03/01 12:06:25;;;;;;;37.28;16.33;;;;;;;;;;4868557;29;20035;-82
2024/03/01 12:09:13;;;;;;;35.38;15.88;;;;;;;;;;4867417;29;20065;-80
2024/03/01 12:11:41;;;;;;;38.08;15.80;;;;;;;;;;4849205;29;20065;-81
2024/03/01 12:14:19;;;;;;;32.70;15.68;;;;;;;;;;4887703;29;20093;-79
2024/03/01 12:16:58;;;;;;;38.13;16.00;;;;;;;;;;4864074;29;20025;-79
2024/03/01 12:19:29;;;;;;;28.27;14.88;;;;;;;;;;4901680;29;20178;-80
2024/03/01 12:22:11;;;;;;;29.63;14.55;;;;;;;;;;4916439;29;20030;-82
2024/03/01 12:24:49;;;;;;;35.67;16.15;;;;;;;;;;4911943;29;20035;-81
2024/03/01 12:27:39;;;;;;;30.10;16.02;;;;;;;;;;4912341;29;20606;-80
2024/03/01 12:30:28;;;;;;;33.38;16.55;;;;;;;;;;4916523;28;20077;-81
2024/03/01 12:33:21;;;;;;;34.92;16.15;;;;;;;;;;4919398;29;20035;-80
2024/03/01 12:36:08;;;;;;;31.02;15.32;;;;;;;;;;4923784;29;20031;-81
2024/03/01 12:38:47;;;;;;;35.25;15.88;;;;;;;;;;4924437;28;20038;-80
2024/03/01 12:41:41;;;;;;;35.63;16.88;;;;;;;;;;4954974;28;20066;-80
2024/03/01 12:44:14;;;;;;;34.67;17.23;;;;;;;;;;4927570;29;20038;-81
2024/03/01 12:47:08;;;;;;;30.00;15.25;;;;;;;;;;4915347;29;20039;-80
2024/03/01 12:49:52;;;;;;;34.47;15.32;;;;;;;;;;4910640;28;20074;-80
2024/03/01 12:52:41;;;;;;;44.67;16.83;;;;;;;;;;4931591;28;20035;-81
2024/03/01 12:55:21;;;;;;;31.40;15.18;;;;;;;;;;4905087;28;20031;-79
2024/03/01 12:57:57;;;;;;;27.38;14.13;;;;;;;;;;4935922;28;20038;-81
2024/03/01 13:00:30;;;;;;;33.38;14.55;;;;;;;;;;4919668;29;20054;-81
2024/03/01 13:02:58;;;;;;;30.00;15.38;;;;;;;;;;4917282;29;20028;-81
2024/03/01 13:05:27;;;;;;;40.17;16.10;;;;;;;;;;4924797;29;20368;-80
2024/03/01 13:07:58;;;;;;;;;;;;;;;;;;4923802;29;20042;-81
2024/03/01 13:10:32;;;;;;;42.20;15.15;;;;;;;;;;4936800;29;19948;-79
2024/03/01 13:13:05;;;;;;;35.33;16.80;;;;;;;;;;4910093;28;20043;-81
2024/03/01 13:15:42;;;;;;;31.65;15.65;;;;;;;;;;4906909;28;20042;-81
2024/03/01 13:18:40;;;;;;;;;;;;;;;;;;;;;
2024/03/01 13:21:29;;;;;;;34.78;16.67;;;;;;;;;;4925662;28;21318;-81
2024/03/01 13:24:06;;;;;;;37.08;17.10;;;;;;;;;;4929558;28;20042;-81
2024/03/01 13:26:52;;;;;;;37.72;16.52;;;;;;;;;;4932055;28;20039;-80
2024/03/01 13:29:25;;;;;;;33.85;17.58;;;;;;;;;;4919676;28;20506;-81
2024/03/01 13:32:00;;;;;;;36.63;16.50;;;;;;;;;;4918351;29;20111;-82
2024/03/01 13:34:59;;;;;;;33.55;16.85;;;;;;;;;;4948908;28;20030;-81
2024/03/01 13:37:38;;;;;;;33.38;17.23;;;;;;;;;;4942353;28;20027;-80
2024/03/01 13:40:25;;;;;;;33.45;17.05;;;;;;;;;;4937901;29;20042;-79
2024/03/01 13:43:01;;;;;;;38.17;16.35;;;;;;;;;;4908174;28;20038;-81
2024/03/01 13:45:52;;;;;;;34.17;17.48;;;;;;;;;;4910457;28;20053;-80
2024/03/01 13:48:23;;;;;;;32.20;15.77;;;;;;;;;;4907528;28;20040;-80
2024/03/01 13:51:00;;;;;;;38.13;16.73;;;;;;;;;;4923264;29;20118;-80
2024/03/01 13:53:30;;;;;;;35.38;16.55;;;;;;;;;;4919006;28;20036;-80
2024/03/01 13:56:03;;;;;;;39.55;16.75;;;;;;;;;;4938172;29;20110;-80
2024/03/01 13:58:43;;;;;;;34.03;16.42;;;;;;;;;;4907471;28;20110;-82
2024/03/01 14:01:45;;;;;;;43.15;18.83;;;;;;;;;;4931380;28;20035;-80
2024/03/01 14:04:25;;;;;;;33.95;15.70;;;;;;;;;;4940581;29;20034;-81
2024/03/01 14:07:08;;;;;;;41.47;16.92;;;;;;;;;;4936570;29;20040;-80
2024/03/01 14:09:42;;;;;;;37.20;17.20;;;;;;;;;;4927112;28;20027;-81
2024/03/01 14:12:11;;;;;;;38.95;16.80;;;;;;;;;;4913361;29;20386;-80
2024/03/01 14:14:50;;;;;;;35.20;16.90;;;;;;;;;;4945634;28;20127;-80
2024/03/01 14:17:25;;;;;;;38.83;18.50;;;;;;;;;;4962284;28;20028;-82
2024/03/01 14:20:03;;;;;;;35.25;17.08;;;;;;;;;;4904110;29;20483;-81
2024/03/01 14:22:35;;;;;;;36.95;19.02;;;;;;;;;;4923408;28;20402;-81
2024/03/01 14:25:11;;;;;;;39.05;17.98;;;;;;;;;;4952509;28;20072;-81
2024/03/01 14:28:12;;;;;;;35.25;16.38;;;;;;;;;;4944411;28;20043;-82
2024/03/01 14:30:45;;;;;;;40.42;17.75;;;;;;;;;;4910649;28;20578;-82
2024/03/01 14:33:24;;;;;;;37.13;17.48;;;;;;;;;;4927529;28;20085;-81
2024/03/01 14:36:04;;;;;;;34.97;16.83;;;;;;;;;;4900795;28;20086;-81
2024/03/01 14:38:34;;;;;;;34.80;16.20;;;;;;;;;;4927884;28;20051;-81
2024/03/01 14:41:12;;;;;;;33.47;17.27;;;;;;;;;;4943813;29;20028;-82
2024/03/01 14:43:53;;;;;;;35.17;17.58;;;;;;;;;;4912866;29;20036;-80
2024/03/01 14:46:40;;;;;;;38.63;16.60;;;;;;;;;;4916646;28;20042;-81
2024/03/01 14:49:20;;;;;;;42.13;18.08;;;;;;;;;;4936420;29;20039;-80
2024/03/01 14:51:54;;;;;;;41.78;18.17;;;;;;;;;;4916314;29;20023;-81
2024/03/01 14:54:33;;;;;;;32.85;16.73;;;;;;;;;;4910570;28;20036;-82
2024/03/01 14:57:38;;;;;;;35.70;17.25;;;;;;;;;;4949811;28;20037;-81
2024/03/01 15:00:21;;;;;;;38.28;17.55;;;;;;;;;;4917340;29;20058;-81
2024/03/01 15:02:53;;;;;;;43.55;17.42;;;;;;;;;;4934460;29;20023;-80
2024/03/01 15:05:34;;;;;;;34.60;17.48;;;;;;;;;;4916138;29;20035;-80
2024/03/01 15:08:11;;;;;;;32.67;15.98;;;;;;;;;;4926229;29;20035;-82
2024/03/01 15:11:16;;;;;;;35.72;18.35;;;;;;;;;;4942818;28;20031;-80
2024/03/01 15:14:27;;;;;;;34.08;15.80;;;;;;;;;;4938237;29;20031;-82
2024/03/01 15:17:11;;;;;;;35.53;16.75;;;;;;;;;;4924406;29;20064;-82
2024/03/01 15:19:42;;;;;;;33.25;17.63;;;;;;;;;;4940547;28;20516;-82
2024/03/01 15:22:20;;;;;;;40.03;17.85;;;;;;;;;;4924481;29;20083;-82
2024/03/01 15:28:59;;;;;;;39.28;17.30;;;;;;;;;;4912857;29;20031;-81
2024/03/01 15:34:41;;;;;;;42.75;18.23;;;;;;;;;;4923440;28;20027;-81
2024/03/01 15:37:18;;;;;;;;;;;;;;;;;;4954532;28;20063;-81
2024/03/01 15:40:02;;;;;;;38.75;17.88;;;;;;;;;;4917532;29;19966;-82
2024/03/01 15:42:38;;;;;;;33.87;16.97;;;;;;;;;;4942009;28;20483;-82
2024/03/01 15:45:15;;;;;;;33.20;16.17;;;;;;;;;;4949998;28;20297;-82
2024/03/01 15:47:51;;;;;;;38.58;17.98;;;;;;;;;;4939290;28;20490;-80
2024/03/01 15:50:29;;;;;;;39.25;17.73;;;;;;;;;;4927859;29;20095;-81
2024/03/01 15:53:02;;;;;;;38.22;17.38;;;;;;;;;;4937775;29;20038;-81
2024/03/01 15:55:56;;;;;;;39.10;18.70;;;;;;;;;;4928864;28;20041;-82
2024/03/01 15:58:27;;;;;;;51.35;21.10;;;;;;;;;;4924370;28;20031;-81
2024/03/01 16:01:07;;;;;;;35.42;18.05;;;;;;;;;;4926105;28;20035;-82
2024/03/01 16:03:39;;;;;;;39.80;18.45;;;;;;;;;;4899513;28;20047;-81
2024/03/01 16:06:22;;;;;;;40.13;17.63;;;;;;;;;;4932100;29;20051;-80
2024/03/01 16:08:52;;;;;;;37.03;17.83;;;;;;;;;;4917542;29;20031;-81
2024/03/01 16:11:19;;;;;;;40.45;18.13;;;;;;;;;;4907194;29;20023;-82
2024/03/01 16:13:53;;;;;;;37.58;18.38;;;;;;;;;;4938231;28;20026;-80